Time;durP1;ratioP1;P1;durP2;ratioP2;P2;SDS_P1;SDS_P2;PMS_P1;PMS_P2;Temp;Humidity;BMP_temperature;BMP_pressure;BME280_temperature;BME280_humidity;BME280_pressure;Samples;Min_cycle;Max_cycle;Signal;HPM_P1;HPM_P2
2023/03/17 00:02:07;;;;;;;52.28;28.15;;;;;;;;;;5037093;28;20025;-58
2023/03/17 00:04:32;;;;;;;57.28;30.27;;;;;;;;;;5037215;28;20033;-58
2023/03/17 00:06:58;;;;;;;58.42;29.40;;;;;;;;;;5036182;28;20108;-59
2023/03/17 00:09:24;;;;;;;56.90;30.65;;;;;;;;;;5019642;28;20029;-58
2023/03/17 00:11:49;;;;;;;54.13;28.55;;;;;;;;;;5037249;28;20344;-59
2023/03/17 00:14:15;;;;;;;57.80;28.58;;;;;;;;;;5037057;28;20029;-58
2023/03/17 00:16:42;;;;;;;51.67;28.38;;;;;;;;;;5037169;28;20112;-58
2023/03/17 00:19:41;;;;;;;50.22;27.38;;;;;;;;;;5018895;28;20053;-58
2023/03/17 00:22:14;;;;;;;48.55;26.67;;;;;;;;;;4992467;28;20045;-58
2023/03/17 00:24:39;;;;;;;50.30;26.83;;;;;;;;;;5035332;28;20036;-58
2023/03/17 00:27:10;;;;;;;50.67;28.00;;;;;;;;;;5018989;28;20124;-58
2023/03/17 00:29:35;;;;;;;47.45;27.45;;;;;;;;;;5036989;28;20447;-58
2023/03/17 00:32:01;;;;;;;52.83;27.95;;;;;;;;;;5036687;28;20164;-64
2023/03/17 00:34:27;;;;;;;52.08;28.10;;;;;;;;;;5036798;28;20055;-58
2023/03/17 00:36:52;;;;;;;56.65;28.67;;;;;;;;;;5036812;28;20452;-58
2023/03/17 00:39:18;;;;;;;60.10;32.53;;;;;;;;;;5036794;28;20128;-63
2023/03/17 00:41:44;;;;;;;55.47;30.15;;;;;;;;;;5036585;28;20079;-59
2023/03/17 00:44:10;;;;;;;54.42;28.17;;;;;;;;;;5036674;28;20363;-58
2023/03/17 00:46:36;;;;;;;53.58;27.23;;;;;;;;;;5035126;28;20068;-63
2023/03/17 00:49:15;;;;;;;49.35;27.25;;;;;;;;;;5036470;28;20078;-58
2023/03/17 00:51:42;;;;;;;48.65;25.00;;;;;;;;;;5036394;28;20038;-63
2023/03/17 00:54:09;;;;;;;49.05;25.23;;;;;;;;;;5018897;28;20049;-63
2023/03/17 00:56:35;;;;;;;52.15;24.92;;;;;;;;;;5035469;28;20076;-63
2023/03/17 00:59:02;;;;;;;43.45;23.35;;;;;;;;;;5036470;28;20026;-63
2023/03/17 01:01:28;;;;;;;43.78;23.27;;;;;;;;;;5018472;28;20018;-58
2023/03/17 01:03:54;;;;;;;42.10;22.90;;;;;;;;;;5035282;28;20033;-58
2023/03/17 01:06:19;;;;;;;44.58;23.38;;;;;;;;;;5036030;28;20029;-58
2023/03/17 01:08:45;;;;;;;46.85;23.52;;;;;;;;;;5036130;28;20416;-63
2023/03/17 01:11:17;;;;;;;57.63;27.70;;;;;;;;;;5036090;28;20022;-63
2023/03/17 01:13:43;;;;;;;63.10;29.98;;;;;;;;;;5035996;28;20490;-64
2023/03/17 01:16:09;;;;;;;60.08;31.08;;;;;;;;;;5035973;28;20068;-59
2023/03/17 01:18:35;;;;;;;55.28;30.05;;;;;;;;;;5035901;28;20034;-60
2023/03/17 01:21:00;;;;;;;42.90;24.23;;;;;;;;;;5018302;28;20097;-59
2023/03/17 01:23:26;;;;;;;43.10;23.38;;;;;;;;;;5035925;28;20120;-60
2023/03/17 01:25:51;;;;;;;48.17;23.85;;;;;;;;;;5026823;28;20040;-64
2023/03/17 01:28:17;;;;;;;44.10;22.77;;;;;;;;;;5015739;28;20025;-63
2023/03/17 01:30:44;;;;;;;43.30;22.08;;;;;;;;;;5029551;28;20353;-59
2023/03/17 01:33:10;;;;;;;57.72;30.23;;;;;;;;;;5034399;28;20017;-59
2023/03/17 01:35:37;;;;;;;59.72;34.05;;;;;;;;;;5035660;28;20030;-59
2023/03/17 01:38:02;;;;;;;84.20;39.40;;;;;;;;;;5035816;28;20025;-59
2023/03/17 01:40:31;;;;;;;88.78;38.53;;;;;;;;;;5035572;28;20561;-64
2023/03/17 01:43:15;;;;;;;58.85;30.27;;;;;;;;;;5024330;28;20041;-64
2023/03/17 01:45:58;;;;;;;48.78;25.05;;;;;;;;;;4997856;28;20037;-64
2023/03/17 01:48:25;;;;;;;45.33;22.58;;;;;;;;;;5015294;28;20065;-64
2023/03/17 01:50:51;;;;;;;70.88;28.13;;;;;;;;;;4997943;28;20034;-64
2023/03/17 01:53:18;;;;;;;84.88;30.50;;;;;;;;;;5015615;28;20038;-64
2023/03/17 01:55:44;;;;;;;80.13;29.25;;;;;;;;;;5015572;28;20356;-65
2023/03/17 01:58:11;;;;;;;77.28;29.42;;;;;;;;;;5015508;28;20029;-65
2023/03/17 02:00:36;;;;;;;48.55;23.77;;;;;;;;;;5014052;28;20034;-65
2023/03/17 02:03:03;;;;;;;42.80;21.48;;;;;;;;;;5014911;28;20028;-65
2023/03/17 02:05:30;;;;;;;42.00;20.83;;;;;;;;;;4997243;28;20132;-65
2023/03/17 02:07:55;;;;;;;44.45;20.45;;;;;;;;;;5014905;28;20104;-65
2023/03/17 02:10:28;;;;;;;48.78;23.23;;;;;;;;;;5013617;28;20116;-60
2023/03/17 02:12:55;;;;;;;47.40;22.45;;;;;;;;;;5013666;28;20057;-59
2023/03/17 02:15:21;;;;;;;79.78;30.45;;;;;;;;;;5013575;28;20481;-60
2023/03/17 02:17:47;;;;;;;43.35;21.95;;;;;;;;;;5015318;28;20026;-59
2023/03/17 02:20:18;;;;;;;40.70;21.55;;;;;;;;;;5013708;28;20076;-59
2023/03/17 02:22:47;;;;;;;41.65;21.75;;;;;;;;;;5013691;28;20488;-65
2023/03/17 02:25:13;;;;;;;41.15;21.92;;;;;;;;;;5014935;28;20049;-65
2023/03/17 02:27:41;;;;;;;40.75;20.52;;;;;;;;;;5014697;28;20519;-60
2023/03/17 02:30:08;;;;;;;39.78;20.35;;;;;;;;;;5014565;28;20036;-63
2023/03/17 02:32:34;;;;;;;39.42;21.30;;;;;;;;;;5014721;28;20472;-58
2023/03/17 02:35:00;;;;;;;39.42;19.77;;;;;;;;;;4997121;28;20456;-59
2023/03/17 02:37:26;;;;;;;40.53;20.63;;;;;;;;;;5014864;28;20034;-59
2023/03/17 02:39:52;;;;;;;36.85;19.58;;;;;;;;;;5014646;28;20037;-59
2023/03/17 02:42:18;;;;;;;39.25;19.55;;;;;;;;;;5020733;28;20048;-59
2023/03/17 02:44:44;;;;;;;38.08;20.58;;;;;;;;;;5034564;28;20375;-66
2023/03/17 02:47:16;;;;;;;40.13;20.92;;;;;;;;;;5058793;22;20048;-62
2023/03/17 02:49:42;;;;;;;46.85;22.00;;;;;;;;;;5073083;22;20051;-59
2023/03/17 02:52:08;;;;;;;54.50;25.75;;;;;;;;;;5090680;28;20412;-64
2023/03/17 02:57:44;;;;;;;44.70;22.52;;;;;;;;;;5074082;28;20036;-64
2023/03/17 03:00:13;;;;;;;37.85;18.92;;;;;;;;;;5074513;28;20035;-64
2023/03/17 03:02:39;;;;;;;37.17;19.30;;;;;;;;;;5056754;28;20037;-64
2023/03/17 03:05:06;;;;;;;37.40;18.95;;;;;;;;;;5073759;28;20032;-64
2023/03/17 03:07:31;;;;;;;40.28;21.33;;;;;;;;;;5064746;28;20035;-64
2023/03/17 03:09:57;;;;;;;51.00;25.38;;;;;;;;;;5094105;28;20028;-64
2023/03/17 03:12:22;;;;;;;79.72;40.92;;;;;;;;;;5093915;28;20034;-64
2023/03/17 03:14:47;;;;;;;87.88;46.25;;;;;;;;;;5076014;28;20043;-64
2023/03/17 03:17:13;;;;;;;63.60;32.83;;;;;;;;;;5094143;28;20032;-64
2023/03/17 03:19:39;;;;;;;51.95;28.25;;;;;;;;;;5094277;28;20028;-63
2023/03/17 03:22:05;;;;;;;49.42;28.50;;;;;;;;;;5094313;28;20442;-63
2023/03/17 03:24:31;;;;;;;53.88;30.10;;;;;;;;;;5094234;28;20126;-64
2023/03/17 03:26:56;;;;;;;56.53;31.02;;;;;;;;;;5095482;28;20060;-64
2023/03/17 03:29:22;;;;;;;51.47;29.23;;;;;;;;;;5098280;28;20062;-64
2023/03/17 03:31:47;;;;;;;49.15;28.27;;;;;;;;;;5098609;28;20020;-64
2023/03/17 03:34:13;;;;;;;73.65;43.55;;;;;;;;;;5098320;28;20542;-64
2023/03/17 03:36:38;;;;;;;49.53;31.83;;;;;;;;;;5098289;28;20474;-64
2023/03/17 03:39:03;;;;;;;38.70;20.67;;;;;;;;;;5098013;28;20111;-64
2023/03/17 03:41:29;;;;;;;34.90;17.63;;;;;;;;;;5080084;28;20028;-64
2023/03/17 03:43:54;;;;;;;32.80;17.17;;;;;;;;;;5089757;28;20016;-64
2023/03/17 03:46:20;;;;;;;33.97;18.55;;;;;;;;;;5059573;28;20032;-64
2023/03/17 03:48:45;;;;;;;39.50;20.45;;;;;;;;;;5077172;28;20043;-64
2023/03/17 03:51:10;;;;;;;44.80;23.40;;;;;;;;;;5077538;28;20027;-64
2023/03/17 03:53:36;;;;;;;76.68;38.45;;;;;;;;;;5077350;28;20028;-64
2023/03/17 03:56:01;;;;;;;71.25;37.15;;;;;;;;;;5077558;28;20468;-64
2023/03/17 03:58:27;;;;;;;100.53;52.47;;;;;;;;;;5077574;28;20024;-64
2023/03/17 04:00:52;;;;;;;85.20;48.38;;;;;;;;;;5077399;28;20382;-64
2023/03/17 04:03:17;;;;;;;82.55;47.60;;;;;;;;;;5077243;28;20078;-64
2023/03/17 04:05:43;;;;;;;73.28;43.55;;;;;;;;;;5077200;28;20059;-64
2023/03/17 04:08:09;;;;;;;47.58;26.90;;;;;;;;;;5077291;28;20037;-64
2023/03/17 04:10:35;;;;;;;46.17;28.02;;;;;;;;;;5077338;28;20355;-64
2023/03/17 04:13:01;;;;;;;60.53;36.42;;;;;;;;;;5077211;28;20035;-63
2023/03/17 04:15:26;;;;;;;59.30;35.80;;;;;;;;;;5077088;28;20434;-63
2023/03/17 04:17:53;;;;;;;61.67;34.92;;;;;;;;;;5076931;28;20035;-64
2023/03/17 04:20:19;;;;;;;53.42;29.55;;;;;;;;;;5076734;28;20052;-59
2023/03/17 04:22:44;;;;;;;47.38;26.92;;;;;;;;;;5042439;28;20382;-59
2023/03/17 04:25:11;;;;;;;45.97;26.02;;;;;;;;;;5077006;28;20515;-59
2023/03/17 04:27:36;;;;;;;43.42;25.65;;;;;;;;;;5077075;28;20126;-59
2023/03/17 04:30:02;;;;;;;39.13;22.50;;;;;;;;;;5076564;28;20028;-59
2023/03/17 04:32:28;;;;;;;34.30;21.35;;;;;;;;;;5076763;28;20059;-58
2023/03/17 04:34:53;;;;;;;30.77;19.58;;;;;;;;;;5076688;28;20016;-59
2023/03/17 04:37:18;;;;;;;30.95;16.60;;;;;;;;;;5076879;28;20090;-59
2023/03/17 04:39:44;;;;;;;28.00;15.63;;;;;;;;;;5076937;28;20119;-59
2023/03/17 04:42:10;;;;;;;31.23;16.27;;;;;;;;;;5076683;28;20039;-58
2023/03/17 04:44:35;;;;;;;34.85;19.35;;;;;;;;;;5090691;28;20024;-59
2023/03/17 04:47:01;;;;;;;92.00;56.35;;;;;;;;;;5096879;28;20063;-59
2023/03/17 04:49:26;;;;;;;69.53;47.33;;;;;;;;;;5096547;28;20040;-59
2023/03/17 04:51:52;;;;;;;182.43;117.13;;;;;;;;;;5096696;28;20017;-59
2023/03/17 04:54:17;;;;;;;90.78;58.47;;;;;;;;;;5096858;28;20005;-59
2023/03/17 04:56:43;;;;;;;67.20;54.85;;;;;;;;;;5096886;28;20036;-59
2023/03/17 04:59:08;;;;;;;27.10;16.67;;;;;;;;;;5096502;28;20021;-59
2023/03/17 05:01:34;;;;;;;23.63;13.38;;;;;;;;;;5096442;28;20024;-59
2023/03/17 05:03:59;;;;;;;24.20;13.82;;;;;;;;;;5096467;28;20017;-58
2023/03/17 05:06:25;;;;;;;24.48;13.15;;;;;;;;;;5078453;28;20115;-61
2023/03/17 05:08:51;;;;;;;24.10;13.00;;;;;;;;;;5078255;28;20070;-59
2023/03/17 05:11:17;;;;;;;28.23;16.17;;;;;;;;;;5061307;28;20020;-59
2023/03/17 05:13:42;;;;;;;31.67;18.58;;;;;;;;;;5093999;28;20020;-59
2023/03/17 05:16:09;;;;;;;30.17;18.17;;;;;;;;;;5095471;28;20098;-59
2023/03/17 05:18:35;;;;;;;28.88;19.50;;;;;;;;;;5077491;28;20032;-59
2023/03/17 05:21:00;;;;;;;25.60;15.85;;;;;;;;;;5078100;28;20032;-58
2023/03/17 05:23:26;;;;;;;27.35;14.20;;;;;;;;;;5095450;28;20032;-59
2023/03/17 05:25:51;;;;;;;39.17;18.10;;;;;;;;;;5095487;28;20020;-59
2023/03/17 05:28:18;;;;;;;39.10;20.40;;;;;;;;;;5095642;28;20462;-59
2023/03/17 05:30:44;;;;;;;33.40;15.40;;;;;;;;;;5095161;28;20043;-59
2023/03/17 05:33:10;;;;;;;40.35;18.35;;;;;;;;;;5095482;28;20031;-59
2023/03/17 05:35:35;;;;;;;39.92;19.50;;;;;;;;;;5095620;28;20020;-59
2023/03/17 05:38:00;;;;;;;31.30;16.30;;;;;;;;;;5095830;28;20362;-59
2023/03/17 05:40:26;;;;;;;38.97;17.45;;;;;;;;;;5095493;28;20078;-59
2023/03/17 05:42:51;;;;;;;40.90;19.60;;;;;;;;;;5095117;28;20434;-59
2023/03/17 05:45:17;;;;;;;43.80;19.98;;;;;;;;;;5057455;28;20028;-59
2023/03/17 05:47:43;;;;;;;46.60;21.27;;;;;;;;;;5040876;28;20105;-59
2023/03/17 05:50:09;;;;;;;46.60;25.90;;;;;;;;;;5056182;28;20042;-59
2023/03/17 05:52:34;;;;;;;52.67;24.50;;;;;;;;;;5056804;28;20024;-59
2023/03/17 05:54:59;;;;;;;37.03;19.95;;;;;;;;;;5074887;28;20032;-59
2023/03/17 05:57:25;;;;;;;53.42;34.50;;;;;;;;;;5074756;28;20055;-59
2023/03/17 05:59:50;;;;;;;50.25;28.52;;;;;;;;;;5074957;28;20032;-59
2023/03/17 06:02:15;;;;;;;50.22;28.55;;;;;;;;;;5057119;28;20368;-59
2023/03/17 06:04:42;;;;;;;50.10;28.15;;;;;;;;;;5074746;28;20071;-59
2023/03/17 06:07:09;;;;;;;44.08;25.80;;;;;;;;;;5074588;28;20386;-60
2023/03/17 06:09:34;;;;;;;30.80;18.20;;;;;;;;;;5075200;28;20047;-61
2023/03/17 06:12:00;;;;;;;57.95;29.38;;;;;;;;;;5074781;28;20495;-59
2023/03/17 06:14:25;;;;;;;34.20;18.20;;;;;;;;;;5074846;28;20336;-58
2023/03/17 06:16:52;;;;;;;34.42;19.65;;;;;;;;;;5056946;28;20033;-60
2023/03/17 06:19:17;;;;;;;88.57;58.20;;;;;;;;;;5074667;28;20145;-58
2023/03/17 06:21:42;;;;;;;37.88;26.27;;;;;;;;;;5074648;28;20478;-59
2023/03/17 06:24:09;;;;;;;32.63;18.55;;;;;;;;;;5056761;28;20363;-59
2023/03/17 06:26:36;;;;;;;23.20;14.35;;;;;;;;;;5074641;28;20435;-59
2023/03/17 06:29:02;;;;;;;47.03;32.55;;;;;;;;;;5074718;28;20028;-63
2023/03/17 06:31:27;;;;;;;32.33;22.00;;;;;;;;;;5074554;28;20024;-63
2023/03/17 06:33:53;;;;;;;23.73;15.93;;;;;;;;;;5074549;28;20020;-63
2023/03/17 06:36:18;;;;;;;20.35;12.15;;;;;;;;;;5074069;28;20051;-63
2023/03/17 06:38:44;;;;;;;22.17;14.43;;;;;;;;;;5074128;28;20111;-63
2023/03/17 06:41:10;;;;;;;25.17;13.90;;;;;;;;;;5054333;28;20020;-63
2023/03/17 06:43:36;;;;;;;20.45;11.82;;;;;;;;;;5072776;28;20147;-63
2023/03/17 06:46:01;;;;;;;21.92;13.10;;;;;;;;;;5074024;28;20074;-63
2023/03/17 06:48:27;;;;;;;22.95;16.10;;;;;;;;;;5073970;28;20039;-63
2023/03/17 06:50:52;;;;;;;17.13;11.68;;;;;;;;;;5073972;28;20039;-63
2023/03/17 06:53:18;;;;;;;17.40;12.15;;;;;;;;;;5055654;28;20021;-63
2023/03/17 06:55:43;;;;;;;13.38;9.07;;;;;;;;;;5072705;28;20111;-63
2023/03/17 06:58:09;;;;;;;13.82;8.13;;;;;;;;;;5070878;28;20034;-64
2023/03/17 07:00:35;;;;;;;16.88;8.80;;;;;;;;;;5070589;28;20390;-63
2023/03/17 07:03:03;;;;;;;13.20;8.82;;;;;;;;;;5072109;28;20025;-63
2023/03/17 07:05:28;;;;;;;12.45;8.25;;;;;;;;;;5072981;28;20036;-63
2023/03/17 07:07:54;;;;;;;14.73;8.15;;;;;;;;;;5073304;28;20081;-63
2023/03/17 07:10:22;;;;;;;11.05;6.85;;;;;;;;;;5053565;28;20382;-63
2023/03/17 07:12:48;;;;;;;18.77;7.85;;;;;;;;;;5072034;28;20019;-63
2023/03/17 07:15:13;;;;;;;10.90;6.60;;;;;;;;;;5072388;28;20099;-63
2023/03/17 07:17:39;;;;;;;14.20;7.50;;;;;;;;;;5071636;28;20036;-63
2023/03/17 07:20:05;;;;;;;12.60;7.57;;;;;;;;;;5072142;28;20032;-63
2023/03/17 07:22:30;;;;;;;11.07;6.75;;;;;;;;;;5071578;28;20071;-63
2023/03/17 07:24:56;;;;;;;9.40;6.18;;;;;;;;;;5071562;28;20560;-63
2023/03/17 07:27:24;;;;;;;13.77;6.72;;;;;;;;;;5071428;28;20035;-63
2023/03/17 07:29:49;;;;;;;12.90;6.32;;;;;;;;;;5071482;28;20029;-63
2023/03/17 07:32:14;;;;;;;8.55;5.65;;;;;;;;;;5073131;28;20020;-63
2023/03/17 07:34:40;;;;;;;9.00;5.57;;;;;;;;;;5073710;28;20039;-63
2023/03/17 07:37:05;;;;;;;8.85;5.65;;;;;;;;;;5073705;28;20024;-63
2023/03/17 07:39:31;;;;;;;8.75;5.25;;;;;;;;;;5073648;28;20032;-63
2023/03/17 07:41:57;;;;;;;7.35;5.00;;;;;;;;;;5055385;28;20028;-63
2023/03/17 07:44:23;;;;;;;6.32;4.88;;;;;;;;;;5073332;28;20048;-63
2023/03/17 07:46:48;;;;;;;6.55;4.55;;;;;;;;;;5086022;22;20060;-59
2023/03/17 07:49:24;;;;;;;6.65;4.70;;;;;;;;;;5123522;22;20052;-59
2023/03/17 07:51:49;;;;;;;14.73;4.90;;;;;;;;;;5091023;22;20056;-59
2023/03/17 07:54:15;;;;;;;8.60;4.93;;;;;;;;;;5093439;28;20118;-59
2023/03/17 07:56:41;;;;;;;7.97;5.13;;;;;;;;;;5075438;28;20378;-59
2023/03/17 07:59:07;;;;;;;9.25;5.80;;;;;;;;;;5093666;28;20081;-59
2023/03/17 08:01:33;;;;;;;7.28;5.32;;;;;;;;;;5093639;28;20040;-59
2023/03/17 08:03:58;;;;;;;10.80;5.07;;;;;;;;;;5093351;28;20034;-59
2023/03/17 08:06:26;;;;;;;8.90;4.97;;;;;;;;;;5093325;28;20027;-59
2023/03/17 08:08:54;;;;;;;7.28;4.93;;;;;;;;;;5093567;28;20040;-59
2023/03/17 08:11:20;;;;;;;6.75;4.95;;;;;;;;;;5093581;28;20504;-59
2023/03/17 08:13:45;;;;;;;7.32;4.05;;;;;;;;;;5096085;28;20028;-59
2023/03/17 08:16:11;;;;;;;11.43;5.88;;;;;;;;;;5097332;28;20034;-58
2023/03/17 08:18:37;;;;;;;10.73;5.70;;;;;;;;;;5097003;28;20035;-59
2023/03/17 08:21:02;;;;;;;10.32;6.20;;;;;;;;;;5097010;28;20124;-59
2023/03/17 08:23:28;;;;;;;9.27;5.13;;;;;;;;;;5097180;28;20027;-58
2023/03/17 08:25:56;;;;;;;6.18;3.97;;;;;;;;;;5096873;28;20039;-58
2023/03/17 08:28:22;;;;;;;5.97;4.18;;;;;;;;;;5078758;28;20032;-59
2023/03/17 08:30:48;;;;;;;5.55;3.70;;;;;;;;;;5097321;28;20019;-59
2023/03/17 08:33:13;;;;;;;6.55;4.80;;;;;;;;;;5097038;28;20059;-58
2023/03/17 08:35:41;;;;;;;6.93;4.53;;;;;;;;;;5096714;28;20103;-59
2023/03/17 08:38:07;;;;;;;5.47;4.00;;;;;;;;;;5096898;28;20028;-59
2023/03/17 08:40:32;;;;;;;6.60;3.72;;;;;;;;;;5078614;28;20367;-58
2023/03/17 08:42:57;;;;;;;6.43;4.10;;;;;;;;;;5096552;28;20028;-58
2023/03/17 08:45:23;;;;;;;8.38;4.78;;;;;;;;;;5096777;28;20373;-59
2023/03/17 08:47:48;;;;;;;4.43;3.90;;;;;;;;;;5096368;28;20085;-59
2023/03/17 08:50:15;;;;;;;5.00;3.92;;;;;;;;;;5096456;28;20082;-58
2023/03/17 08:52:41;;;;;;;5.65;3.50;;;;;;;;;;5096324;28;20047;-58
2023/03/17 08:55:07;;;;;;;5.20;3.28;;;;;;;;;;5096586;28;20021;-58
2023/03/17 08:57:33;;;;;;;3.30;2.78;;;;;;;;;;5096279;28;20032;-59
2023/03/17 08:59:58;;;;;;;5.85;3.20;;;;;;;;;;5096526;28;20031;-59
2023/03/17 09:02:24;;;;;;;3.97;2.95;;;;;;;;;;5078458;28;20036;-58
2023/03/17 09:04:49;;;;;;;4.60;2.95;;;;;;;;;;5078100;28;20028;-58
2023/03/17 09:07:14;;;;;;;3.53;2.70;;;;;;;;;;5096612;28;20032;-58
2023/03/17 09:09:41;;;;;;;3.78;2.60;;;;;;;;;;5096352;28;20474;-58
2023/03/17 09:12:06;;;;;;;4.35;2.65;;;;;;;;;;5096265;28;20507;-58
2023/03/17 09:14:32;;;;;;;2.58;2.38;;;;;;;;;;5096011;28;20055;-58
2023/03/17 09:16:58;;;;;;;3.80;2.38;;;;;;;;;;5096188;28;20016;-58
2023/03/17 09:19:23;;;;;;;4.72;2.65;;;;;;;;;;5096439;28;20085;-58
2023/03/17 09:21:50;;;;;;;4.57;3.00;;;;;;;;;;5095814;28;20024;-58
2023/03/17 09:24:16;;;;;;;3.45;2.80;;;;;;;;;;5095113;28;20036;-58
2023/03/17 09:26:42;;;;;;;3.28;2.28;;;;;;;;;;5095647;28;20056;-58
2023/03/17 09:29:07;;;;;;;4.85;2.83;;;;;;;;;;5095685;28;20048;-58
2023/03/17 09:31:34;;;;;;;3.75;2.90;;;;;;;;;;5095621;28;20032;-58
2023/03/17 09:34:01;;;;;;;7.47;4.70;;;;;;;;;;5095594;28;20101;-58
2023/03/17 09:36:26;;;;;;;5.82;4.53;;;;;;;;;;5095520;28;20036;-58
2023/03/17 09:38:52;;;;;;;5.72;3.20;;;;;;;;;;5095786;28;20403;-59
2023/03/17 09:41:22;;;;;;;5.05;3.03;;;;;;;;;;5077326;28;20489;-58
2023/03/17 09:43:47;;;;;;;5.30;3.10;;;;;;;;;;5095386;28;20111;-59
2023/03/17 09:46:27;;;;;;;3.85;2.80;;;;;;;;;;5095362;28;20140;-58
2023/03/17 09:49:02;;;;;;;4.38;2.45;;;;;;;;;;5095521;28;20032;-58
2023/03/17 09:51:28;;;;;;;2.83;2.25;;;;;;;;;;5095252;28;20117;-58
2023/03/17 09:53:59;;;;;;;3.08;2.42;;;;;;;;;;5095198;28;20485;-59
2023/03/17 09:56:26;;;;;;;4.97;2.70;;;;;;;;;;5095485;28;20031;-58
2023/03/17 09:58:53;;;;;;;3.65;2.50;;;;;;;;;;5095134;28;20028;-58
2023/03/17 10:01:18;;;;;;;3.13;1.98;;;;;;;;;;5095067;28;20024;-59
2023/03/17 10:03:43;;;;;;;4.20;2.47;;;;;;;;;;5095033;28;20020;-59
2023/03/17 10:06:16;;;;;;;3.90;2.55;;;;;;;;;;5094955;28;20469;-58
2023/03/17 10:08:50;;;;;;;3.42;2.85;;;;;;;;;;5095400;28;20097;-58
2023/03/17 10:11:33;;;;;;;5.70;3.17;;;;;;;;;;5095427;28;20038;-58
2023/03/17 10:14:07;;;;;;;4.60;2.55;;;;;;;;;;5076758;28;20033;-58
2023/03/17 10:16:45;;;;;;;4.13;2.50;;;;;;;;;;5095041;28;20028;-58
2023/03/17 10:19:13;;;;;;;4.57;2.70;;;;;;;;;;5076951;28;20020;-58
2023/03/17 10:21:48;;;;;;;3.13;2.80;;;;;;;;;;5094697;28;20116;-59
2023/03/17 10:24:14;;;;;;;4.65;3.03;;;;;;;;;;5094917;28;20032;-58
2023/03/17 10:26:44;;;;;;;3.45;2.70;;;;;;;;;;5094509;28;20020;-59
2023/03/17 10:29:15;;;;;;;4.20;2.05;;;;;;;;;;5094514;28;20034;-59
2023/03/17 10:31:40;;;;;;;3.75;2.40;;;;;;;;;;5094792;28;20031;-59
2023/03/17 10:34:20;;;;;;;3.45;2.30;;;;;;;;;;5094454;28;20384;-58
2023/03/17 10:36:46;;;;;;;4.55;2.40;;;;;;;;;;5094352;28;20390;-58
2023/03/17 10:39:15;;;;;;;2.50;2.10;;;;;;;;;;5076291;28;20019;-58
2023/03/17 10:41:47;;;;;;;2.22;2.05;;;;;;;;;;5076167;28;20059;-58
2023/03/17 10:44:20;;;;;;;2.47;2.00;;;;;;;;;;5094284;28;20047;-59
2023/03/17 10:46:51;;;;;;;3.15;2.50;;;;;;;;;;5094438;28;20466;-58
2023/03/17 10:49:17;;;;;;;4.55;2.60;;;;;;;;;;5094176;28;20043;-59
2023/03/17 10:51:45;;;;;;;2.95;2.08;;;;;;;;;;5093989;28;20486;-58
2023/03/17 10:54:19;;;;;;;2.95;2.58;;;;;;;;;;5094089;28;20107;-58
2023/03/17 10:56:49;;;;;;;4.28;2.75;;;;;;;;;;5094390;28;20036;-58
2023/03/17 10:59:31;;;;;;;7.97;3.00;;;;;;;;;;5094371;28;20028;-59
2023/03/17 11:02:04;;;;;;;3.13;2.83;;;;;;;;;;5075974;28;20039;-59
2023/03/17 11:04:34;;;;;;;4.35;3.05;;;;;;;;;;5094210;28;20145;-59
2023/03/17 11:07:05;;;;;;;2.83;2.55;;;;;;;;;;5094144;28;20386;-59
2023/03/17 11:09:30;;;;;;;;;;;;;;;;;;5094319;28;20028;-59
2023/03/17 11:12:00;;;;;;;6.30;2.80;;;;;;;;;;5094477;28;19912;-58
2023/03/17 11:14:27;;;;;;;5.63;3.08;;;;;;;;;;5094169;28;20084;-59
2023/03/17 11:16:57;;;;;;;3.47;2.95;;;;;;;;;;5075679;28;20035;-59
2023/03/17 11:19:29;;;;;;;4.13;2.90;;;;;;;;;;5094048;28;20028;-59
2023/03/17 11:21:56;;;;;;;3.53;2.60;;;;;;;;;;5075743;28;20047;-58
2023/03/17 11:24:28;;;;;;;2.72;2.30;;;;;;;;;;5094011;28;20020;-59
2023/03/17 11:27:11;;;;;;;3.13;2.25;;;;;;;;;;5093941;28;20024;-58
2023/03/17 11:29:56;;;;;;;4.88;3.40;;;;;;;;;;5094239;28;20040;-59
2023/03/17 11:32:33;;;;;;;7.15;3.75;;;;;;;;;;5075941;28;20036;-58
2023/03/17 11:34:58;;;;;;;3.38;2.65;;;;;;;;;;5094223;28;20035;-58
2023/03/17 11:37:23;;;;;;;7.28;4.35;;;;;;;;;;5093629;28;20016;-58
2023/03/17 11:39:49;;;;;;;5.20;3.60;;;;;;;;;;5093876;28;20027;-59
2023/03/17 11:42:33;;;;;;;6.00;4.43;;;;;;;;;;5093593;28;20036;-59
2023/03/17 11:45:20;;;;;;;6.72;3.40;;;;;;;;;;5094124;28;20064;-59
2023/03/17 11:47:53;;;;;;;2.95;2.67;;;;;;;;;;5094746;28;20032;-59
2023/03/17 11:50:36;;;;;;;4.75;3.40;;;;;;;;;;5097568;28;20103;-59
2023/03/17 11:53:18;;;;;;;4.80;2.92;;;;;;;;;;5098159;28;20089;-59
2023/03/17 11:55:46;;;;;;;4.47;2.80;;;;;;;;;;5097816;28;20074;-58
2023/03/17 11:58:37;;;;;;;3.42;2.28;;;;;;;;;;5097728;28;20032;-58
2023/03/17 12:01:07;;;;;;;4.38;2.72;;;;;;;;;;5056320;28;20044;-58
2023/03/17 12:03:40;;;;;;;6.07;3.10;;;;;;;;;;5097645;28;20114;-58
2023/03/17 12:06:16;;;;;;;5.88;3.58;;;;;;;;;;5097563;28;20047;-59
2023/03/17 12:08:53;;;;;;;5.93;3.55;;;;;;;;;;5097482;28;20044;-58
2023/03/17 12:11:27;;;;;;;3.35;2.35;;;;;;;;;;5079024;28;20385;-59
2023/03/17 12:13:59;;;;;;;5.50;2.95;;;;;;;;;;5097456;28;20059;-59
2023/03/17 12:16:34;;;;;;;8.20;5.28;;;;;;;;;;5097684;28;20016;-58
2023/03/17 12:19:08;;;;;;;3.10;2.58;;;;;;;;;;5097021;28;20028;-58
2023/03/17 12:21:40;;;;;;;2.17;1.95;;;;;;;;;;5097288;28;20034;-58
2023/03/17 12:24:21;;;;;;;10.32;5.68;;;;;;;;;;5078807;28;20055;-59
2023/03/17 12:26:52;;;;;;;7.50;5.85;;;;;;;;;;5096853;28;20027;-58
2023/03/17 12:29:23;;;;;;;22.95;12.57;;;;;;;;;;5097144;28;20035;-58
2023/03/17 12:31:55;;;;;;;5.10;4.18;;;;;;;;;;5096789;28;20028;-58
2023/03/17 12:34:33;;;;;;;4.90;3.15;;;;;;;;;;5096770;28;20035;-58
2023/03/17 12:36:58;;;;;;;6.75;3.65;;;;;;;;;;5097260;28;20035;-58
2023/03/17 12:39:29;;;;;;;3.28;2.97;;;;;;;;;;5096951;28;20030;-58
2023/03/17 12:41:55;;;;;;;4.97;3.05;;;;;;;;;;5078832;28;20039;-58
2023/03/17 12:44:35;;;;;;;3.92;3.53;;;;;;;;;;5078778;28;20461;-58
2023/03/17 12:47:16;;;;;;;6.35;3.40;;;;;;;;;;5097062;28;20034;-58
2023/03/17 12:53:15;;;;;;;3.15;2.78;;;;;;;;;;5064068;22;20056;-63
2023/03/17 12:55:44;;;;;;;3.88;2.55;;;;;;;;;;5084539;22;20133;-58
2023/03/17 12:58:22;;;;;;;4.03;3.38;;;;;;;;;;5096159;28;20031;-58
2023/03/17 13:00:49;;;;;;;5.32;2.95;;;;;;;;;;5095634;28;20464;-58
2023/03/17 13:03:19;;;;;;;6.30;4.25;;;;;;;;;;5096219;28;20035;-58
2023/03/17 13:05:46;;;;;;;7.10;4.75;;;;;;;;;;5096461;28;20028;-58
2023/03/17 13:08:14;;;;;;;6.55;4.40;;;;;;;;;;5096056;28;20386;-58
2023/03/17 13:10:40;;;;;;;6.32;4.15;;;;;;;;;;5078044;28;20081;-58
2023/03/17 13:13:09;;;;;;;7.32;4.80;;;;;;;;;;5096320;28;20020;-58
2023/03/17 13:15:35;;;;;;;4.97;4.38;;;;;;;;;;5095938;28;20032;-58
2023/03/17 13:18:15;;;;;;;4.72;3.53;;;;;;;;;;5096237;28;20466;-58
2023/03/17 13:20:40;;;;;;;;;;;;;;;;;;5096582;28;20032;-58
2023/03/17 13:23:09;;;;;;;5.43;3.90;;;;;;;;;;5077701;28;19908;-58
2023/03/17 13:25:37;;;;;;;6.05;4.22;;;;;;;;;;5078090;28;20439;-58
2023/03/17 13:28:12;;;;;;;4.57;3.55;;;;;;;;;;5095603;28;20069;-58
2023/03/17 13:30:37;;;;;;;3.58;3.20;;;;;;;;;;5095974;28;20420;-58
2023/03/17 13:33:08;;;;;;;4.40;3.35;;;;;;;;;;5095917;28;20066;-58
2023/03/17 13:35:41;;;;;;;4.05;2.65;;;;;;;;;;5095854;28;20080;-58
2023/03/17 13:38:10;;;;;;;4.80;3.17;;;;;;;;;;5077418;28;20176;-58
2023/03/17 13:41:01;;;;;;;4.03;3.63;;;;;;;;;;5095483;28;20070;-58
2023/03/17 13:43:38;;;;;;;4.82;3.97;;;;;;;;;;5095751;28;20036;-59
2023/03/17 13:46:20;;;;;;;3.97;3.30;;;;;;;;;;5077263;28;20032;-58
2023/03/17 13:48:45;;;;;;;6.55;3.92;;;;;;;;;;5095570;28;20512;-59
2023/03/17 13:51:17;;;;;;;14.07;7.90;;;;;;;;;;5095289;28;20058;-58
2023/03/17 13:53:51;;;;;;;6.30;3.92;;;;;;;;;;5095818;28;20466;-58
2023/03/17 13:56:21;;;;;;;14.48;6.28;;;;;;;;;;5077024;28;20044;-58
2023/03/17 13:58:49;;;;;;;5.20;3.88;;;;;;;;;;5095151;28;20077;-59
2023/03/17 14:01:15;;;;;;;12.15;6.03;;;;;;;;;;5095661;28;20047;-58
2023/03/17 14:03:46;;;;;;;14.25;7.68;;;;;;;;;;5095142;28;20166;-58
2023/03/17 14:06:13;;;;;;;6.57;4.57;;;;;;;;;;5077242;28;20488;-58
2023/03/17 14:08:44;;;;;;;6.88;4.45;;;;;;;;;;5094854;28;20031;-58
2023/03/17 14:11:22;;;;;;;8.60;4.70;;;;;;;;;;5094673;28;20107;-58
2023/03/17 14:14:03;;;;;;;9.40;4.38;;;;;;;;;;5095385;28;20088;-59
2023/03/17 14:16:30;;;;;;;6.07;4.07;;;;;;;;;;5095099;28;20028;-59
2023/03/17 14:19:14;;;;;;;6.65;4.13;;;;;;;;;;5095025;28;20469;-58
2023/03/17 14:21:39;;;;;;;7.07;3.53;;;;;;;;;;5095009;28;20032;-58
2023/03/17 14:24:17;;;;;;;5.75;3.80;;;;;;;;;;5095224;28;20027;-58
2023/03/17 14:26:42;;;;;;;9.15;4.15;;;;;;;;;;5093875;28;20558;-58
2023/03/17 14:29:12;;;;;;;5.72;3.63;;;;;;;;;;5064616;28;20099;-58
2023/03/17 14:31:38;;;;;;;3.88;3.13;;;;;;;;;;5081443;28;20486;-58
2023/03/17 14:34:10;;;;;;;5.20;3.75;;;;;;;;;;5077239;28;20021;-63
2023/03/17 14:36:36;;;;;;;6.32;4.18;;;;;;;;;;5072518;28;20085;-56
2023/03/17 14:39:01;;;;;;;5.20;3.40;;;;;;;;;;5078959;28;20028;-57
2023/03/17 14:41:27;;;;;;;4.93;3.75;;;;;;;;;;5063291;28;20079;-56
2023/03/17 14:43:56;;;;;;;7.13;4.25;;;;;;;;;;5080901;28;20441;-57